SKCG/CTG METAR and TAF weather

Enter ICAO airport designator
Station Type Date Time Source
SKCG METAR 2019/06/26 16:00 UTC NOAA

SKCG 261600Z 34007KT 310V030 9999 FEW020 31/25 A2977


Station Type Date Time Source
SKCG Decoded METAR 2019/06/26 16:00 UTC NOAA

Cartagena / Rafael Nunez, Colombia (SKCG) 10-27N 075-31W 12M
Jun 26, 2019 - 12:00 PM EDT / 2019.06.26 1600 UTC
Wind: from the NNW (340 degrees) at 8 MPH (7 KT) (direction variable):0
Visibility: greater than 7 mile(s):0
Sky conditions: mostly clear
Temperature: 87 F (31 C)
Heat index: 97.5 F (36.4 C):1
Dew Point: 77 F (25 C)
Relative Humidity: 70%
Pressure (altimeter): 29.77 in. Hg (1008 hPa)
ob: SKCG 261600Z 34007KT 310V030 9999 FEW020 31/25 A2977
cycle: 16

Station Type Date Time Source
SKCG TAF 2019/06/26 12:48 UTC NOAA

TAF SKCG 261030Z 2612/2712 VRB03KT 9999 FEW017
BECMG 2614/2616 01012KT TX33/2618Z TN25/2711Z

Example: see airport list